Time;durP1;ratioP1;P1;durP2;ratioP2;P2;SDS_P1;SDS_P2;PMS_P1;PMS_P2;Temp;Humidity;BMP_temperature;BMP_pressure;BME280_temperature;BME280_humidity;BME280_pressure;Samples;Min_cycle;Max_cycle;Signal;HPM_P1;HPM_P2
2022/07/07 00:02:00;;;;;;;3.05;1.05;;;;;;;;;;5119680;27;20046;-76
2022/07/07 00:04:26;;;;;;;3.97;1.00;;;;;;;;;;5136087;27;20031;-77
2022/07/07 00:06:51;;;;;;;4.70;1.23;;;;;;;;;;5136561;27;20380;-76
2022/07/07 00:09:19;;;;;;;4.80;1.40;;;;;;;;;;5130895;27;20057;-77
2022/07/07 00:11:46;;;;;;;12.55;1.38;;;;;;;;;;5098624;28;20035;-77
2022/07/07 00:14:12;;;;;;;4.80;1.05;;;;;;;;;;5098758;28;20092;-77
2022/07/07 00:16:38;;;;;;;1.95;0.98;;;;;;;;;;5115725;28;20042;-77
2022/07/07 00:19:04;;;;;;;3.10;0.90;;;;;;;;;;5116786;27;20392;-76
2022/07/07 00:21:31;;;;;;;5.05;1.25;;;;;;;;;;5115503;28;20512;-76
2022/07/07 00:23:56;;;;;;;4.70;1.00;;;;;;;;;;5098531;28;20059;-76
2022/07/07 00:26:22;;;;;;;2.38;1.08;;;;;;;;;;5116139;28;20076;-77
2022/07/07 00:28:49;;;;;;;3.63;1.00;;;;;;;;;;5115355;28;20472;-76
2022/07/07 00:31:16;;;;;;;4.32;1.50;;;;;;;;;;5098618;28;20035;-76
2022/07/07 00:33:42;;;;;;;5.85;1.40;;;;;;;;;;5098476;28;20024;-76
2022/07/07 00:36:09;;;;;;;5.38;1.15;;;;;;;;;;5116338;28;20503;-76
2022/07/07 00:38:35;;;;;;;6.97;0.98;;;;;;;;;;5115148;28;20043;-76
2022/07/07 00:41:03;;;;;;;3.63;1.17;;;;;;;;;;5115143;28;20055;-76
2022/07/07 00:43:41;;;;;;;4.72;1.50;;;;;;;;;;5097909;28;20536;-76
2022/07/07 00:46:07;;;;;;;2.65;1.48;;;;;;;;;;5115155;28;20046;-78
2022/07/07 00:48:36;;;;;;;1.58;1.00;;;;;;;;;;5115187;28;20047;-77
2022/07/07 00:51:04;;;;;;;5.35;1.30;;;;;;;;;;5115265;28;20063;-77
2022/07/07 00:53:30;;;;;;;2.95;1.10;;;;;;;;;;5117452;28;20031;-77
2022/07/07 00:55:56;;;;;;;6.40;1.33;;;;;;;;;;5099602;28;20034;-77
2022/07/07 00:58:22;;;;;;;3.30;1.13;;;;;;;;;;5118068;28;20091;-78
2022/07/07 01:00:51;;;;;;;3.53;1.40;;;;;;;;;;5117054;28;20496;-78
2022/07/07 01:03:20;;;;;;;2.45;1.05;;;;;;;;;;5099254;28;20096;-78
2022/07/07 01:05:47;;;;;;;2.50;1.08;;;;;;;;;;5130528;27;20118;-78
2022/07/07 01:08:15;;;;;;;3.72;1.35;;;;;;;;;;5136878;27;20031;-78
2022/07/07 01:10:41;;;;;;;3.50;1.10;;;;;;;;;;5136354;27;20480;-77
2022/07/07 01:13:06;;;;;;;3.80;1.30;;;;;;;;;;5135448;27;20062;-78
2022/07/07 01:15:32;;;;;;;1.75;1.00;;;;;;;;;;5135635;27;20062;-77
2022/07/07 01:18:01;;;;;;;4.40;1.52;;;;;;;;;;5118650;27;20476;-77
2022/07/07 01:20:29;;;;;;;3.50;1.20;;;;;;;;;;5118219;27;20038;-77
2022/07/07 01:22:55;;;;;;;4.53;1.25;;;;;;;;;;5117964;27;20038;-77
2022/07/07 01:25:21;;;;;;;3.65;1.35;;;;;;;;;;5117849;27;20027;-77
2022/07/07 01:27:49;;;;;;;2.13;1.20;;;;;;;;;;5135253;27;20039;-77
2022/07/07 01:30:15;;;;;;;2.60;1.10;;;;;;;;;;5135416;27;20038;-77
2022/07/07 01:32:41;;;;;;;3.28;1.48;;;;;;;;;;5119519;27;20038;-77
2022/07/07 01:35:11;;;;;;;3.50;1.20;;;;;;;;;;5129813;27;20023;-78
2022/07/07 01:37:40;;;;;;;3.35;1.05;;;;;;;;;;5119594;28;20036;-79
2022/07/07 01:40:06;;;;;;;1.88;1.00;;;;;;;;;;5104511;28;20027;-79
2022/07/07 01:42:32;;;;;;;3.28;1.00;;;;;;;;;;5122113;28;20053;-79
2022/07/07 01:44:58;;;;;;;6.47;1.33;;;;;;;;;;5118426;28;20039;-78
2022/07/07 01:47:24;;;;;;;4.93;1.55;;;;;;;;;;5117692;28;20042;-78
2022/07/07 01:49:50;;;;;;;3.78;1.50;;;;;;;;;;5099792;28;20130;-78
2022/07/07 01:52:15;;;;;;;3.15;1.42;;;;;;;;;;5099177;28;20074;-78
2022/07/07 01:54:43;;;;;;;4.10;1.60;;;;;;;;;;5117407;28;20091;-78
2022/07/07 01:57:09;;;;;;;5.32;1.60;;;;;;;;;;5101801;28;20093;-77
2022/07/07 01:59:36;;;;;;;3.75;2.38;;;;;;;;;;5114713;28;20435;-77
2022/07/07 02:02:02;;;;;;;5.93;1.42;;;;;;;;;;5114774;28;20136;-77
2022/07/07 02:04:28;;;;;;;6.35;1.60;;;;;;;;;;5117882;27;20031;-77
2022/07/07 02:06:53;;;;;;;7.22;1.98;;;;;;;;;;5136940;27;20528;-78
2022/07/07 02:09:19;;;;;;;4.43;1.27;;;;;;;;;;5137671;27;20031;-78
2022/07/07 02:11:45;;;;;;;5.72;1.85;;;;;;;;;;5137280;27;20035;-77
2022/07/07 02:14:13;;;;;;;7.13;1.92;;;;;;;;;;5137852;27;20031;-79
2022/07/07 02:16:39;;;;;;;4.93;1.45;;;;;;;;;;5121725;27;20127;-79
2022/07/07 02:19:06;;;;;;;4.15;1.60;;;;;;;;;;5138636;27;20066;-79
2022/07/07 02:21:32;;;;;;;3.92;1.52;;;;;;;;;;5118526;27;20035;-77
2022/07/07 02:23:57;;;;;;;5.15;1.45;;;;;;;;;;5137644;27;20039;-78
2022/07/07 02:26:23;;;;;;;10.45;1.50;;;;;;;;;;5136891;27;20042;-78
2022/07/07 02:28:52;;;;;;;11.80;1.73;;;;;;;;;;5136047;27;20027;-78
2022/07/07 02:31:18;;;;;;;5.15;1.85;;;;;;;;;;5119507;27;20035;-77
2022/07/07 02:33:44;;;;;;;11.23;1.88;;;;;;;;;;5135127;27;20075;-77
2022/07/07 02:36:09;;;;;;;4.93;1.90;;;;;;;;;;5117215;27;20027;-77
2022/07/07 02:38:36;;;;;;;10.02;1.85;;;;;;;;;;5117796;27;20099;-77
2022/07/07 02:41:02;;;;;;;6.82;2.05;;;;;;;;;;5117187;27;20031;-77
2022/07/07 02:43:28;;;;;;;5.68;1.90;;;;;;;;;;5117843;27;20027;-77
2022/07/07 02:45:54;;;;;;;7.65;1.75;;;;;;;;;;5134644;27;20039;-77
2022/07/07 02:48:23;;;;;;;8.02;2.10;;;;;;;;;;5134046;27;20107;-76
2022/07/07 02:50:49;;;;;;;4.95;1.80;;;;;;;;;;5135578;27;20388;-77
2022/07/07 02:53:16;;;;;;;5.35;1.73;;;;;;;;;;5136476;27;20480;-80
2022/07/07 02:55:42;;;;;;;6.60;2.35;;;;;;;;;;5138505;27;20037;-79
2022/07/07 02:58:09;;;;;;;6.93;1.83;;;;;;;;;;5124095;27;20042;-80
2022/07/07 03:00:35;;;;;;;4.07;2.28;;;;;;;;;;5121140;27;20434;-78
2022/07/07 03:03:02;;;;;;;4.53;1.95;;;;;;;;;;5137505;27;20491;-79
2022/07/07 03:05:27;;;;;;;4.03;2.20;;;;;;;;;;5137155;27;20420;-79
2022/07/07 03:07:55;;;;;;;7.65;2.05;;;;;;;;;;5138184;27;20039;-79
2022/07/07 03:10:22;;;;;;;5.65;2.13;;;;;;;;;;5138236;27;20030;-79
2022/07/07 03:12:47;;;;;;;3.90;1.75;;;;;;;;;;5121055;27;20035;-79
2022/07/07 03:15:13;;;;;;;8.38;2.13;;;;;;;;;;5138109;27;20027;-79
2022/07/07 03:17:44;;;;;;;6.00;2.28;;;;;;;;;;5120626;27;20176;-79
2022/07/07 03:20:11;;;;;;;5.55;2.40;;;;;;;;;;5120367;28;20039;-79
2022/07/07 03:22:38;;;;;;;6.40;2.15;;;;;;;;;;5120433;28;20512;-79
2022/07/07 03:25:04;;;;;;;4.88;2.15;;;;;;;;;;5137786;27;20109;-79
2022/07/07 03:27:30;;;;;;;9.93;2.20;;;;;;;;;;5140540;27;20042;-79
2022/07/07 03:29:55;;;;;;;5.70;2.15;;;;;;;;;;5141806;27;20035;-79
2022/07/07 03:32:21;;;;;;;6.25;2.20;;;;;;;;;;5132414;27;20066;-79
2022/07/07 03:34:48;;;;;;;6.63;2.10;;;;;;;;;;5148843;27;20035;-81
2022/07/07 03:37:15;;;;;;;4.47;2.22;;;;;;;;;;5126773;27;20058;-81
2022/07/07 03:39:41;;;;;;;7.03;2.05;;;;;;;;;;5134770;27;20047;-81
2022/07/07 03:42:07;;;;;;;3.60;2.00;;;;;;;;;;5109396;28;20038;-81
2022/07/07 03:44:32;;;;;;;6.85;2.40;;;;;;;;;;5126845;28;20032;-80
2022/07/07 03:47:00;;;;;;;4.10;2.40;;;;;;;;;;5104306;28;20040;-80
2022/07/07 03:49:26;;;;;;;4.53;2.30;;;;;;;;;;5103446;28;20032;-80
2022/07/07 03:51:52;;;;;;;5.00;2.10;;;;;;;;;;5120507;28;20041;-79
2022/07/07 03:54:17;;;;;;;10.30;2.67;;;;;;;;;;5109188;28;20416;-80
2022/07/07 03:56:45;;;;;;;12.25;2.45;;;;;;;;;;5126425;28;20023;-79
2022/07/07 03:59:14;;;;;;;4.60;2.13;;;;;;;;;;5108500;28;20084;-79
2022/07/07 04:01:44;;;;;;;11.13;2.92;;;;;;;;;;5108668;28;20051;-79
2022/07/07 04:04:10;;;;;;;5.05;2.53;;;;;;;;;;5126702;27;20040;-80
2022/07/07 04:06:36;;;;;;;9.65;2.60;;;;;;;;;;5126454;27;20108;-80
2022/07/07 04:09:02;;;;;;;14.95;3.15;;;;;;;;;;5146386;27;20039;-80
2022/07/07 04:11:29;;;;;;;6.78;2.63;;;;;;;;;;5128367;27;20060;-80
2022/07/07 04:13:54;;;;;;;10.70;2.83;;;;;;;;;;5129301;27;20408;-81
2022/07/07 04:16:20;;;;;;;4.10;2.50;;;;;;;;;;5149204;27;20098;-81
2022/07/07 04:18:45;;;;;;;5.72;2.55;;;;;;;;;;5149714;27;20039;-80
2022/07/07 04:21:14;;;;;;;5.13;3.40;;;;;;;;;;5149657;27;20046;-80
2022/07/07 04:23:40;;;;;;;12.20;2.97;;;;;;;;;;5133431;27;20046;-79
2022/07/07 04:26:06;;;;;;;8.60;2.78;;;;;;;;;;5129365;27;20035;-79
2022/07/07 04:28:31;;;;;;;4.22;2.85;;;;;;;;;;5142237;27;20027;-79
2022/07/07 04:30:57;;;;;;;5.43;3.13;;;;;;;;;;5128289;27;20041;-79
2022/07/07 04:33:23;;;;;;;8.27;2.80;;;;;;;;;;5131922;27;20031;-79
2022/07/07 04:35:49;;;;;;;7.88;3.20;;;;;;;;;;5150258;27;20082;-79
2022/07/07 04:38:15;;;;;;;5.88;3.13;;;;;;;;;;5149247;27;20039;-79
2022/07/07 04:40:41;;;;;;;6.03;2.80;;;;;;;;;;5132146;27;20508;-80
2022/07/07 04:43:07;;;;;;;10.05;3.97;;;;;;;;;;5146572;27;20027;-81
2022/07/07 04:45:34;;;;;;;11.82;3.03;;;;;;;;;;5124283;27;20039;-80
2022/07/07 04:47:59;;;;;;;11.73;3.08;;;;;;;;;;5124066;27;20027;-79
2022/07/07 04:50:27;;;;;;;6.03;2.92;;;;;;;;;;5141397;27;20031;-81
2022/07/07 04:52:53;;;;;;;6.10;3.00;;;;;;;;;;5127004;27;20387;-81
2022/07/07 04:55:25;;;;;;;6.47;3.17;;;;;;;;;;5128003;27;20122;-80
2022/07/07 04:57:51;;;;;;;4.13;2.80;;;;;;;;;;5129007;27;20551;-80
2022/07/07 05:00:16;;;;;;;10.40;4.15;;;;;;;;;;5129338;27;20069;-80
2022/07/07 05:02:42;;;;;;;3.75;2.75;;;;;;;;;;5130267;27;20126;-80
2022/07/07 05:05:09;;;;;;;9.55;3.22;;;;;;;;;;5139825;27;20036;-80
2022/07/07 05:07:36;;;;;;;6.50;3.03;;;;;;;;;;5139258;27;20035;-80
2022/07/07 05:10:02;;;;;;;9.10;3.50;;;;;;;;;;5132284;27;20042;-80
2022/07/07 05:12:27;;;;;;;4.15;3.00;;;;;;;;;;5128585;27;20068;-80
2022/07/07 05:14:53;;;;;;;10.45;3.15;;;;;;;;;;5124774;27;20066;-79
2022/07/07 05:17:18;;;;;;;4.03;2.90;;;;;;;;;;5122354;27;20038;-82
2022/07/07 05:19:45;;;;;;;3.30;2.70;;;;;;;;;;5122726;27;20038;-80
2022/07/07 05:22:12;;;;;;;6.20;2.90;;;;;;;;;;5121696;27;20076;-80
2022/07/07 05:24:38;;;;;;;8.13;3.00;;;;;;;;;;5122638;27;20039;-79
2022/07/07 05:27:04;;;;;;;6.05;3.10;;;;;;;;;;5121596;27;20472;-78
2022/07/07 05:29:30;;;;;;;7.53;3.78;;;;;;;;;;5138682;27;20552;-77
2022/07/07 05:31:55;;;;;;;6.63;3.65;;;;;;;;;;5135550;27;20070;-75
2022/07/07 05:34:21;;;;;;;9.55;4.22;;;;;;;;;;5134922;27;20366;-75
2022/07/07 05:36:46;;;;;;;8.35;3.40;;;;;;;;;;5135529;27;20027;-79
2022/07/07 05:39:15;;;;;;;6.70;2.88;;;;;;;;;;5140450;27;20058;-79
2022/07/07 05:41:41;;;;;;;7.80;3.58;;;;;;;;;;5123985;27;20030;-78
2022/07/07 05:44:07;;;;;;;8.57;3.35;;;;;;;;;;5139493;27;20061;-79
2022/07/07 05:46:33;;;;;;;8.85;3.33;;;;;;;;;;5123186;27;20035;-79
2022/07/07 05:49:00;;;;;;;9.20;3.72;;;;;;;;;;5121934;27;20035;-79
2022/07/07 05:51:25;;;;;;;11.18;3.80;;;;;;;;;;5137430;27;20041;-78
2022/07/07 05:53:51;;;;;;;10.00;3.95;;;;;;;;;;5123743;27;20035;-78
2022/07/07 05:56:18;;;;;;;6.78;3.60;;;;;;;;;;5121508;27;20062;-79
2022/07/07 05:58:44;;;;;;;9.35;3.80;;;;;;;;;;5138949;27;20067;-78
2022/07/07 06:01:09;;;;;;;10.20;4.55;;;;;;;;;;5136025;27;20476;-78
2022/07/07 06:03:34;;;;;;;7.63;4.72;;;;;;;;;;5136250;27;20035;-77
2022/07/07 06:06:00;;;;;;;7.80;3.97;;;;;;;;;;5109257;28;20043;-80
2022/07/07 06:08:28;;;;;;;9.60;4.05;;;;;;;;;;5105453;28;20065;-83
2022/07/07 06:10:54;;;;;;;14.00;4.40;;;;;;;;;;5120147;28;20039;-79
2022/07/07 06:13:19;;;;;;;11.73;4.40;;;;;;;;;;5116395;28;20088;-76
2022/07/07 06:15:44;;;;;;;7.13;3.60;;;;;;;;;;5098974;28;20028;-78
2022/07/07 06:18:10;;;;;;;8.45;4.00;;;;;;;;;;5100282;28;20477;-79
2022/07/07 06:20:36;;;;;;;7.25;4.47;;;;;;;;;;5099507;28;20063;-77
2022/07/07 06:23:01;;;;;;;7.25;4.07;;;;;;;;;;5118769;28;20070;-79
2022/07/07 06:25:27;;;;;;;5.72;3.85;;;;;;;;;;5100840;28;20122;-79
2022/07/07 06:27:54;;;;;;;11.10;4.13;;;;;;;;;;5099490;28;20031;-79
2022/07/07 06:30:20;;;;;;;8.20;3.88;;;;;;;;;;5102049;28;20027;-79
2022/07/07 06:32:46;;;;;;;8.40;4.07;;;;;;;;;;5119283;28;20765;-79
2022/07/07 06:35:13;;;;;;;12.43;4.07;;;;;;;;;;5101404;28;20031;-79
2022/07/07 06:37:40;;;;;;;11.50;4.82;;;;;;;;;;5118236;27;20023;-79
2022/07/07 06:40:06;;;;;;;6.22;3.90;;;;;;;;;;5118854;28;20036;-79
2022/07/07 06:42:33;;;;;;;8.30;3.92;;;;;;;;;;5100536;28;20032;-79
2022/07/07 06:45:05;;;;;;;10.02;4.22;;;;;;;;;;5117179;28;20031;-80
2022/07/07 06:47:30;;;;;;;9.23;3.90;;;;;;;;;;5118178;28;20045;-82
2022/07/07 06:49:56;;;;;;;9.10;4.20;;;;;;;;;;5117489;28;20055;-79
2022/07/07 06:52:21;;;;;;;7.63;4.07;;;;;;;;;;5114272;28;20042;-77
2022/07/07 06:54:47;;;;;;;7.75;4.22;;;;;;;;;;5115462;28;20046;-77
2022/07/07 06:57:13;;;;;;;19.10;4.05;;;;;;;;;;5126579;27;20031;-82
2022/07/07 06:59:38;;;;;;;7.15;4.05;;;;;;;;;;5118607;27;20031;-80
2022/07/07 07:02:04;;;;;;;6.35;3.83;;;;;;;;;;5136048;27;20476;-76
2022/07/07 07:04:31;;;;;;;11.77;4.22;;;;;;;;;;5118341;27;20046;-78
2022/07/07 07:06:57;;;;;;;6.50;3.53;;;;;;;;;;5116015;27;20028;-80
2022/07/07 07:09:22;;;;;;;6.22;3.15;;;;;;;;;;5114294;28;20038;-82
2022/07/07 07:11:49;;;;;;;7.65;3.88;;;;;;;;;;5122875;27;20049;-82
2022/07/07 07:14:15;;;;;;;8.13;4.43;;;;;;;;;;5123292;27;20402;-82
2022/07/07 07:16:41;;;;;;;4.55;3.53;;;;;;;;;;5109008;28;20020;-78
2022/07/07 07:19:06;;;;;;;6.35;4.28;;;;;;;;;;5118802;28;20485;-81
2022/07/07 07:21:32;;;;;;;11.07;4.95;;;;;;;;;;5102764;28;20095;-84
2022/07/07 07:23:58;;;;;;;13.20;4.40;;;;;;;;;;5098941;28;20374;-81
2022/07/07 07:26:24;;;;;;;6.75;4.53;;;;;;;;;;5120294;28;20043;-84
2022/07/07 07:28:50;;;;;;;7.00;4.45;;;;;;;;;;5100046;28;20055;-81
2022/07/07 07:31:16;;;;;;;5.38;3.83;;;;;;;;;;5102355;28;20492;-80
2022/07/07 07:33:41;;;;;;;7.40;3.97;;;;;;;;;;5099505;28;20103;-80
2022/07/07 07:36:10;;;;;;;6.60;4.18;;;;;;;;;;5100518;28;20032;-79
2022/07/07 07:38:39;;;;;;;7.78;5.00;;;;;;;;;;5116840;27;20489;-79
2022/07/07 07:41:09;;;;;;;7.70;5.80;;;;;;;;;;5116296;28;20035;-82
2022/07/07 07:43:35;;;;;;;6.35;5.18;;;;;;;;;;5100838;28;20035;-82
2022/07/07 07:46:00;;;;;;;7.53;5.40;;;;;;;;;;5119754;28;20084;-81
2022/07/07 07:48:27;;;;;;;6.07;5.15;;;;;;;;;;5100429;28;20032;-82
2022/07/07 07:50:53;;;;;;;7.10;3.70;;;;;;;;;;5098206;28;20027;-78
2022/07/07 07:53:18;;;;;;;5.55;3.85;;;;;;;;;;5117143;28;20064;-81
2022/07/07 07:55:44;;;;;;;6.07;4.30;;;;;;;;;;5114910;28;20055;-81
2022/07/07 07:58:10;;;;;;;5.60;3.35;;;;;;;;;;5118299;28;20032;-81
2022/07/07 08:00:35;;;;;;;3.63;3.10;;;;;;;;;;5121200;28;20062;-80
2022/07/07 08:03:01;;;;;;;2.63;2.15;;;;;;;;;;5118236;28;20038;-79
2022/07/07 08:05:26;;;;;;;4.03;2.08;;;;;;;;;;5114567;28;20039;-76
2022/07/07 08:07:52;;;;;;;4.07;1.88;;;;;;;;;;5114891;27;20031;-79
2022/07/07 08:10:19;;;;;;;3.63;1.70;;;;;;;;;;5146925;27;20053;-80
2022/07/07 08:12:47;;;;;;;2.67;1.60;;;;;;;;;;5115263;27;20114;-79
2022/07/07 08:15:14;;;;;;;3.05;1.48;;;;;;;;;;5140933;27;20123;-79
2022/07/07 08:17:39;;;;;;;2.55;1.30;;;;;;;;;;5129425;27;20037;-80
2022/07/07 08:20:05;;;;;;;2.80;1.50;;;;;;;;;;5153257;27;20528;-80
2022/07/07 08:22:31;;;;;;;3.25;1.40;;;;;;;;;;5150769;27;20036;-80
2022/07/07 08:24:56;;;;;;;3.45;1.45;;;;;;;;;;5125272;27;20114;-80
2022/07/07 08:27:22;;;;;;;2.08;1.25;;;;;;;;;;5122636;27;20092;-80
2022/07/07 08:29:49;;;;;;;4.32;1.60;;;;;;;;;;5118865;27;20038;-78
2022/07/07 08:32:15;;;;;;;4.18;1.45;;;;;;;;;;5135289;27;20110;-77
2022/07/07 08:34:42;;;;;;;3.63;1.13;;;;;;;;;;5117614;27;20046;-77
2022/07/07 08:37:07;;;;;;;4.80;1.27;;;;;;;;;;5119030;27;20039;-77
2022/07/07 08:39:33;;;;;;;3.25;1.10;;;;;;;;;;5136898;27;20122;-77
2022/07/07 08:41:59;;;;;;;1.58;1.35;;;;;;;;;;5140005;27;20039;-82
2022/07/07 08:44:25;;;;;;;2.25;1.00;;;;;;;;;;5122400;27;20047;-77
2022/07/07 08:46:51;;;;;;;2.20;1.13;;;;;;;;;;5139404;27;20042;-78
2022/07/07 08:49:17;;;;;;;4.63;0.90;;;;;;;;;;5143759;27;20111;-79
2022/07/07 08:51:44;;;;;;;2.58;1.05;;;;;;;;;;5116348;28;20028;-80
2022/07/07 08:54:11;;;;;;;1.75;0.88;;;;;;;;;;5102194;28;20130;-77
2022/07/07 08:56:40;;;;;;;1.27;0.90;;;;;;;;;;5125897;27;20038;-80
2022/07/07 08:59:07;;;;;;;3.40;0.80;;;;;;;;;;5124048;27;20042;-81
2022/07/07 09:01:33;;;;;;;3.42;1.15;;;;;;;;;;5123721;27;20042;-80
2022/07/07 09:03:59;;;;;;;2.33;0.90;;;;;;;;;;5124140;28;20031;-80
2022/07/07 09:06:25;;;;;;;3.83;0.95;;;;;;;;;;5122175;27;20491;-81
2022/07/07 09:08:51;;;;;;;1.20;0.70;;;;;;;;;;5103929;27;20031;-81
2022/07/07 09:11:27;;;;;;;3.95;1.92;;;;;;;;;;5123253;28;20031;-81
2022/07/07 09:14:17;;;;;;;3.00;0.75;;;;;;;;;;5112191;27;20023;-81
2022/07/07 09:16:43;;;;;;;1.60;0.77;;;;;;;;;;5120598;27;20515;-84
2022/07/07 09:19:19;;;;;;;2.90;0.70;;;;;;;;;;5119812;27;20071;-84
2022/07/07 09:21:45;;;;;;;1.10;0.43;;;;;;;;;;5120785;27;20031;-83
2022/07/07 09:24:11;;;;;;;0.40;0.40;;;;;;;;;;5133833;27;20065;-83
2022/07/07 09:26:41;;;;;;;3.88;0.75;;;;;;;;;;5143677;27;20034;-81
2022/07/07 09:29:09;;;;;;;0.55;0.40;;;;;;;;;;5161315;27;20468;-80
2022/07/07 09:31:58;;;;;;;2.28;0.55;;;;;;;;;;5142607;27;20492;-79
2022/07/07 09:34:29;;;;;;;1.38;0.57;;;;;;;;;;5160064;27;20038;-80
2022/07/07 09:39:39;;;;;;;1.58;0.40;;;;;;;;;;5156330;27;20047;-77
2022/07/07 09:42:18;;;;;;;1.15;0.68;;;;;;;;;;5158856;27;20042;-81
2022/07/07 09:44:46;;;;;;;1.05;0.45;;;;;;;;;;5160469;27;20400;-80
2022/07/07 09:47:14;;;;;;;2.03;0.50;;;;;;;;;;5156203;27;20027;-80
2022/07/07 09:49:43;;;;;;;1.60;0.57;;;;;;;;;;5139365;27;20034;-79
2022/07/07 09:52:14;;;;;;;1.50;0.63;;;;;;;;;;5120298;27;20411;-78
2022/07/07 09:54:48;;;;;;;1.20;0.57;;;;;;;;;;5139369;27;20042;-79
2022/07/07 09:57:13;;;;;;;2.15;0.50;;;;;;;;;;5137203;27;20031;-79
2022/07/07 09:59:41;;;;;;;3.20;0.45;;;;;;;;;;5118904;27;20058;-77
2022/07/07 10:02:24;;;;;;;1.02;0.57;;;;;;;;;;5118918;27;20052;-77
2022/07/07 10:04:54;;;;;;;2.47;0.80;;;;;;;;;;5120180;27;20084;-84
2022/07/07 10:07:24;;;;;;;2.90;0.90;;;;;;;;;;5122425;27;20460;-80
2022/07/07 10:09:55;;;;;;;4.68;0.90;;;;;;;;;;5142556;27;20492;-81
2022/07/07 10:12:25;;;;;;;6.68;1.52;;;;;;;;;;5143178;27;20034;-81
2022/07/07 10:14:57;;;;;;;1.80;0.73;;;;;;;;;;5144414;27;20502;-82
2022/07/07 10:17:26;;;;;;;2.08;0.55;;;;;;;;;;5162475;27;20421;-79
2022/07/07 10:19:52;;;;;;;3.83;0.60;;;;;;;;;;5163696;27;20038;-78
2022/07/07 10:22:21;;;;;;;1.55;0.43;;;;;;;;;;5162437;27;20035;-79
2022/07/07 10:24:48;;;;;;;1.88;0.60;;;;;;;;;;5140999;27;20074;-85
2022/07/07 10:27:16;;;;;;;2.63;0.85;;;;;;;;;;5140743;27;20399;-84
2022/07/07 10:29:51;;;;;;;1.17;0.55;;;;;;;;;;5161247;27;20060;-84
2022/07/07 10:32:39;;;;;;;1.88;0.52;;;;;;;;;;5164275;27;20035;-83
2022/07/07 10:35:11;;;;;;;1.42;0.60;;;;;;;;;;5137052;27;20049;-83
2022/07/07 10:38:09;;;;;;;2.25;0.90;;;;;;;;;;5123274;27;20042;-82
2022/07/07 10:40:35;;;;;;;4.13;0.80;;;;;;;;;;5126290;27;20039;-80
2022/07/07 10:43:19;;;;;;;1.73;0.90;;;;;;;;;;5120303;27;20060;-77
2022/07/07 10:45:48;;;;;;;3.05;1.02;;;;;;;;;;5118234;27;20027;-78
2022/07/07 10:48:41;;;;;;;4.03;1.02;;;;;;;;;;5136606;27;20060;-79
2022/07/07 10:51:26;;;;;;;2.45;0.90;;;;;;;;;;5118411;27;20083;-77
2022/07/07 10:54:10;;;;;;;3.58;1.00;;;;;;;;;;5119733;27;20042;-79
2022/07/07 10:56:51;;;;;;;2.28;0.70;;;;;;;;;;5138378;27;20035;-80
2022/07/07 10:59:17;;;;;;;2.78;1.00;;;;;;;;;;5120395;27;20035;-81
2022/07/07 11:02:01;;;;;;;4.50;0.95;;;;;;;;;;5118902;27;20118;-77
2022/07/07 11:04:47;;;;;;;1.40;0.80;;;;;;;;;;5134712;27;20045;-79
2022/07/07 11:07:21;;;;;;;4.07;0.93;;;;;;;;;;5097334;28;20092;-78
2022/07/07 11:10:13;;;;;;;2.85;1.17;;;;;;;;;;5100210;28;20043;-78
2022/07/07 11:12:51;;;;;;;2.60;0.80;;;;;;;;;;5118570;27;20445;-78
2022/07/07 11:15:20;;;;;;;2.25;1.10;;;;;;;;;;5136573;27;20038;-77
2022/07/07 11:17:56;;;;;;;3.38;0.90;;;;;;;;;;5145428;27;20027;-77
2022/07/07 11:20:30;;;;;;;3.40;1.35;;;;;;;;;;5132525;27;20381;-77
2022/07/07 11:23:12;;;;;;;3.97;1.00;;;;;;;;;;5132187;27;20031;-77
2022/07/07 11:25:39;;;;;;;2.88;1.02;;;;;;;;;;5112409;28;20042;-76
2022/07/07 11:28:06;;;;;;;1.60;0.80;;;;;;;;;;5112286;28;20105;-76
2022/07/07 11:30:33;;;;;;;3.58;0.98;;;;;;;;;;5114926;28;20063;-79
2022/07/07 11:33:00;;;;;;;4.20;1.20;;;;;;;;;;5136531;27;20075;-80
2022/07/07 11:35:36;;;;;;;2.97;1.60;;;;;;;;;;5133518;27;20489;-79
2022/07/07 11:38:02;;;;;;;3.42;1.33;;;;;;;;;;5143208;27;20050;-79
2022/07/07 11:40:27;;;;;;;4.22;1.77;;;;;;;;;;5144200;27;20484;-79
2022/07/07 11:42:53;;;;;;;5.82;1.48;;;;;;;;;;5148579;27;20027;-80
2022/07/07 11:45:19;;;;;;;3.63;1.17;;;;;;;;;;5140572;27;20035;-80
2022/07/07 11:47:45;;;;;;;4.68;1.63;;;;;;;;;;5139412;27;20067;-81
2022/07/07 11:50:11;;;;;;;4.15;1.30;;;;;;;;;;5142476;27;20041;-81
2022/07/07 11:52:36;;;;;;;2.45;1.13;;;;;;;;;;5112239;28;20408;-79
2022/07/07 11:55:05;;;;;;;2.72;1.00;;;;;;;;;;5119448;28;20047;-80
2022/07/07 11:57:37;;;;;;;4.00;1.20;;;;;;;;;;5102764;28;20036;-79
2022/07/07 12:00:12;;;;;;;4.43;1.02;;;;;;;;;;5121866;28;20058;-81
2022/07/07 12:02:38;;;;;;;4.05;1.30;;;;;;;;;;5124724;28;20061;-81
2022/07/07 12:05:04;;;;;;;3.85;1.50;;;;;;;;;;5116832;27;20177;-81
2022/07/07 12:07:30;;;;;;;5.57;1.30;;;;;;;;;;5130614;27;20051;-82
2022/07/07 12:09:57;;;;;;;5.10;1.40;;;;;;;;;;5146818;27;20054;-81
2022/07/07 12:12:23;;;;;;;2.03;1.10;;;;;;;;;;5129716;27;20407;-81
2022/07/07 12:14:48;;;;;;;2.13;0.80;;;;;;;;;;5127126;27;20055;-81
2022/07/07 12:17:33;;;;;;;3.35;1.25;;;;;;;;;;5124956;27;20113;-81
2022/07/07 12:19:59;;;;;;;5.30;1.40;;;;;;;;;;5124820;27;20042;-81
2022/07/07 12:22:34;;;;;;;5.93;1.80;;;;;;;;;;5125851;27;20033;-81
2022/07/07 12:25:06;;;;;;;3.90;1.27;;;;;;;;;;5125374;27;20484;-81
2022/07/07 12:27:32;;;;;;;3.58;1.20;;;;;;;;;;5126517;27;20032;-81
2022/07/07 12:30:03;;;;;;;4.15;1.33;;;;;;;;;;5142765;27;20050;-82
2022/07/07 12:32:29;;;;;;;3.90;1.10;;;;;;;;;;5144561;27;20212;-81
2022/07/07 12:34:54;;;;;;;4.05;1.25;;;;;;;;;;5142716;27;20077;-81
2022/07/07 12:37:20;;;;;;;6.47;1.50;;;;;;;;;;5122251;28;20031;-82
2022/07/07 12:39:50;;;;;;;4.25;1.00;;;;;;;;;;5122358;28;20476;-82
2022/07/07 12:42:25;;;;;;;5.32;1.25;;;;;;;;;;5105394;28;20063;-82
2022/07/07 12:44:50;;;;;;;4.03;1.20;;;;;;;;;;5122545;28;20481;-82
2022/07/07 12:47:18;;;;;;;8.63;1.25;;;;;;;;;;5122689;28;20092;-82
2022/07/07 12:49:58;;;;;;;2.40;1.08;;;;;;;;;;5104692;28;20544;-82
2022/07/07 12:52:24;;;;;;;3.10;1.10;;;;;;;;;;5104735;28;20520;-82
2022/07/07 12:54:53;;;;;;;4.53;1.25;;;;;;;;;;5122183;28;20040;-82
2022/07/07 12:57:26;;;;;;;8.45;1.20;;;;;;;;;;5121389;28;20076;-82
2022/07/07 12:59:53;;;;;;;7.50;1.23;;;;;;;;;;5104818;28;20031;-81
2022/07/07 13:02:22;;;;;;;4.32;1.35;;;;;;;;;;5105137;28;20036;-81
2022/07/07 13:04:47;;;;;;;3.78;1.17;;;;;;;;;;5127893;27;20027;-82
2022/07/07 13:07:13;;;;;;;4.28;1.38;;;;;;;;;;5124143;27;20480;-81
2022/07/07 13:09:40;;;;;;;4.85;1.23;;;;;;;;;;5125125;27;20042;-83
2022/07/07 13:12:13;;;;;;;6.82;1.50;;;;;;;;;;5139983;27;20100;-79
2022/07/07 13:14:38;;;;;;;4.45;1.20;;;;;;;;;;5139466;27;20122;-79
2022/07/07 13:17:06;;;;;;;4.18;1.30;;;;;;;;;;5140101;27;20065;-78
2022/07/07 13:19:32;;;;;;;11.38;2.42;;;;;;;;;;5123451;27;20034;-80
2022/07/07 13:21:58;;;;;;;3.60;1.17;;;;;;;;;;5140110;27;20031;-80
2022/07/07 13:24:23;;;;;;;5.85;1.15;;;;;;;;;;5140441;27;20118;-79
2022/07/07 13:26:48;;;;;;;3.67;1.13;;;;;;;;;;5138456;27;20034;-78
2022/07/07 13:29:17;;;;;;;2.63;1.10;;;;;;;;;;5137849;27;20042;-78
2022/07/07 13:31:44;;;;;;;3.60;0.93;;;;;;;;;;5138311;27;20554;-78
2022/07/07 13:34:10;;;;;;;4.45;1.20;;;;;;;;;;5119818;27;20031;-78
2022/07/07 13:36:36;;;;;;;4.80;1.58;;;;;;;;;;5131225;27;20484;-78
2022/07/07 13:39:02;;;;;;;5.60;1.30;;;;;;;;;;5133689;27;20047;-78
2022/07/07 13:41:28;;;;;;;4.97;1.42;;;;;;;;;;5097469;28;20063;-77
2022/07/07 13:43:55;;;;;;;5.10;1.77;;;;;;;;;;5117663;28;20032;-78
2022/07/07 13:46:24;;;;;;;5.20;1.25;;;;;;;;;;5117762;28;20091;-78
2022/07/07 13:48:54;;;;;;;10.88;1.58;;;;;;;;;;5116695;28;20038;-78
2022/07/07 13:51:20;;;;;;;6.22;1.23;;;;;;;;;;5116696;28;20031;-78
2022/07/07 13:53:46;;;;;;;4.97;1.45;;;;;;;;;;5099638;28;20500;-78
2022/07/07 13:56:12;;;;;;;3.72;0.95;;;;;;;;;;5099500;28;20028;-78
2022/07/07 13:58:40;;;;;;;5.07;1.35;;;;;;;;;;5116675;28;20040;-78
2022/07/07 14:01:06;;;;;;;4.57;1.15;;;;;;;;;;5099628;28;20074;-78
2022/07/07 14:03:32;;;;;;;3.05;1.10;;;;;;;;;;5115835;28;20080;-78
2022/07/07 14:05:57;;;;;;;3.60;1.20;;;;;;;;;;5132957;27;20035;-78
2022/07/07 14:08:23;;;;;;;7.03;1.38;;;;;;;;;;5137380;27;20076;-77
2022/07/07 14:10:48;;;;;;;4.88;1.20;;;;;;;;;;5118195;27;20104;-76
2022/07/07 14:13:13;;;;;;;7.57;1.83;;;;;;;;;;5136339;27;20031;-78
2022/07/07 14:15:42;;;;;;;4.70;1.00;;;;;;;;;;5134914;27;20458;-76
2022/07/07 14:18:10;;;;;;;5.72;1.10;;;;;;;;;;5134429;27;20041;-77
2022/07/07 14:20:36;;;;;;;4.15;1.23;;;;;;;;;;5134171;27;20088;-77
2022/07/07 14:23:02;;;;;;;4.70;1.08;;;;;;;;;;5117840;27;20050;-77
2022/07/07 14:25:27;;;;;;;6.20;1.33;;;;;;;;;;5138149;27;20039;-82
2022/07/07 14:27:53;;;;;;;4.78;1.27;;;;;;;;;;5139351;27;20626;-78
2022/07/07 14:30:18;;;;;;;4.90;1.10;;;;;;;;;;5140655;27;20445;-77
2022/07/07 14:32:44;;;;;;;3.83;1.20;;;;;;;;;;5135775;27;20046;-77
2022/07/07 14:35:09;;;;;;;3.90;1.02;;;;;;;;;;5135114;27;20500;-77
2022/07/07 14:37:36;;;;;;;3.25;1.15;;;;;;;;;;5116433;27;20472;-77
2022/07/07 14:40:03;;;;;;;2.40;1.00;;;;;;;;;;5092266;28;20051;-77
2022/07/07 14:42:28;;;;;;;4.57;1.27;;;;;;;;;;5076147;28;20130;-76
2022/07/07 14:44:55;;;;;;;3.90;0.80;;;;;;;;;;5093770;28;20063;-76
2022/07/07 14:47:22;;;;;;;4.18;0.80;;;;;;;;;;5075519;28;20511;-77